Time;durP1;ratioP1;P1;durP2;ratioP2;P2;SDS_P1;SDS_P2;PMS_P1;PMS_P2;Temp;Humidity;BMP_temperature;BMP_pressure;BME280_temperature;BME280_humidity;BME280_pressure;Samples;Min_cycle;Max_cycle;Signal;HPM_P1;HPM_P2
2022/08/15 00:01:08;;;;;;;12.45;7.35;;;;;;;23.79;65.67;100099.19;1581502;89;21011;-93
2022/08/15 00:03:47;;;;;;;7.72;6.97;;;;;;;23.76;65.72;100103.09;1602787;89;21076;-91
2022/08/15 00:06:25;;;;;;;8.90;7.15;;;;;;;23.74;65.72;100104.34;1602829;89;21075;-92
2022/08/15 00:08:57;;;;;;;11.18;6.78;;;;;;;23.73;65.52;100109.35;1600985;88;21157;-92
2022/08/15 00:11:36;;;;;;;8.90;6.60;;;;;;;23.74;65.81;100103.02;1600977;88;21048;-92
2022/08/15 00:14:22;;;;;;;7.15;6.45;;;;;;;23.73;65.73;100105.37;1600616;89;21124;-92
2022/08/15 00:16:55;;;;;;;8.55;6.28;;;;;;;23.74;65.66;100098.50;1603433;88;21061;-92
2022/08/15 00:19:29;;;;;;;7.25;6.55;;;;;;;23.75;65.66;100104.64;1602731;88;21056;-92
2022/08/15 00:22:06;;;;;;;9.68;6.78;;;;;;;23.74;65.55;100090.52;1602846;88;21213;-92
2022/08/15 00:24:35;;;;;;;8.48;6.42;;;;;;;23.75;65.30;100088.17;1602996;88;21115;-92
2022/08/15 00:27:08;;;;;;;8.35;6.65;;;;;;;23.79;65.20;100093.87;1602766;88;21084;-91
2022/08/15 00:29:37;;;;;;;8.08;6.15;;;;;;;23.82;64.92;100088.13;1603111;88;21083;-91
2022/08/15 00:32:13;;;;;;;9.13;6.40;;;;;;;23.86;64.84;100089.31;1603515;87;21079;-92
2022/08/15 00:34:47;;;;;;;7.03;5.90;;;;;;;23.88;64.96;100083.27;1592672;88;21576;-92
2022/08/15 00:37:18;;;;;;;8.13;6.22;;;;;;;23.91;64.69;100084.68;1596736;88;21062;-91
2022/08/15 00:39:46;;;;;;;9.10;6.87;;;;;;;23.93;64.54;100083.45;1594728;88;21085;-91
2022/08/15 00:42:13;;;;;;;7.87;6.47;;;;;;;23.96;64.54;100077.42;1596735;89;21104;-91
2022/08/15 00:44:46;;;;;;;14.15;6.37;;;;;;;23.98;64.28;100084.67;1596851;89;21818;-91
2022/08/15 00:47:22;;;;;;;12.37;6.80;;;;;;;23.99;64.20;100073.80;1596975;88;21859;-90
2022/08/15 00:49:51;;;;;;;7.05;6.25;;;;;;;24.02;64.06;100068.56;1602978;88;21501;-91
2022/08/15 00:52:28;;;;;;;8.83;6.25;;;;;;;24.04;63.98;100071.30;1604331;89;21087;-90
2022/08/15 00:55:05;;;;;;;10.68;7.05;;;;;;;24.05;64.05;100072.93;1601569;89;21563;-92
2022/08/15 00:57:42;;;;;;;8.25;7.00;;;;;;;24.04;63.82;100069.17;1602262;89;21106;-91
2022/08/15 01:00:16;;;;;;;9.28;6.50;;;;;;;24.04;63.67;100077.14;1604368;89;21208;-91
2022/08/15 01:02:46;;;;;;;11.45;7.20;;;;;;;24.03;63.78;100072.36;1608962;89;21115;-91
2022/08/15 01:05:16;;;;;;;7.55;6.67;;;;;;;24.04;63.81;100070.50;1604544;89;21102;-91
2022/08/15 01:07:44;;;;;;;13.75;7.15;;;;;;;24.04;63.56;100065.98;1587992;89;21158;-92
2022/08/15 01:10:12;;;;;;;11.83;6.58;;;;;;;24.05;63.82;100071.59;1604445;89;21099;-91
2022/08/15 01:12:42;;;;;;;6.87;6.22;;;;;;;24.06;63.75;100071.09;1604193;89;21127;-91
2022/08/15 01:15:15;;;;;;;7.53;6.80;;;;;;;24.05;63.67;100068.94;1604401;89;21087;-91
2022/08/15 01:17:48;;;;;;;8.45;6.47;;;;;;;24.04;63.84;100067.84;1604271;89;21088;-92
2022/08/15 01:20:24;;;;;;;8.33;6.67;;;;;;;24.03;63.94;100068.87;1604538;89;21103;-91
2022/08/15 01:23:14;;;;;;;6.72;6.05;;;;;;;24.02;64.05;100068.06;1602703;88;21059;-92
2022/08/15 01:26:03;;;;;;;7.83;6.42;;;;;;;24.03;63.68;100060.89;1604492;88;21775;-91
2022/08/15 01:28:45;;;;;;;7.58;6.15;;;;;;;24.03;63.66;100061.72;1595523;89;21084;-91
2022/08/15 01:31:18;;;;;;;8.33;6.25;;;;;;;24.02;63.66;100057.43;1556829;92;21100;-91
2022/08/15 01:33:57;;;;;;;7.35;6.55;;;;;;;24.03;63.85;100063.55;1594933;88;21014;-93
2022/08/15 01:36:28;;;;;;;11.60;6.83;;;;;;;24.00;63.57;100055.50;1597161;89;21125;-90
2022/08/15 01:39:14;;;;;;;9.80;6.40;;;;;;;24.00;63.87;100063.97;1597027;89;21324;-91
2022/08/15 01:42:05;;;;;;;8.13;6.90;;;;;;;24.01;63.76;100066.93;1592495;88;21631;-91
2022/08/15 01:44:41;;;;;;;7.17;6.22;;;;;;;24.01;63.75;100060.28;1596777;89;21038;-91
2022/08/15 01:47:23;;;;;;;9.08;6.97;;;;;;;24.01;63.65;100053.64;1595565;89;21125;-91
2022/08/15 01:49:55;;;;;;;9.38;7.22;;;;;;;24.02;63.79;100068.56;1598838;87;21077;-91
2022/08/15 01:52:28;;;;;;;9.38;7.10;;;;;;;24.01;63.75;100062.95;1601911;89;21842;-92
2022/08/15 01:54:57;;;;;;;10.58;6.62;;;;;;;24.02;63.74;100070.73;1603747;87;20967;-92
2022/08/15 01:57:24;;;;;;;8.45;6.45;;;;;;;24.02;63.46;100069.89;1604016;88;21074;-92
2022/08/15 01:59:59;;;;;;;10.82;7.05;;;;;;;24.02;63.61;100066.73;1587862;88;21564;-92
2022/08/15 02:02:28;;;;;;;12.25;7.40;;;;;;;24.02;63.90;100072.05;1603810;88;21136;-92
2022/08/15 02:04:58;;;;;;;14.13;7.42;;;;;;;24.01;63.84;100067.77;1596721;89;21176;-92
2022/08/15 02:07:28;;;;;;;8.77;6.57;;;;;;;24.02;63.98;100076.54;1596763;88;21089;-92
2022/08/15 02:10:00;;;;;;;;;;;;;;;23.99;63.99;100073.01;1599226;89;21758;-91
2022/08/15 02:12:36;;;;;;;9.45;6.83;;;;;;;23.97;63.72;100071.88;1600705;88;20203;-91
2022/08/15 02:15:19;;;;;;;12.15;7.00;;;;;;;23.97;63.90;100072.41;1592401;88;21030;-91
2022/08/15 02:17:48;;;;;;;12.50;6.30;;;;;;;23.96;63.80;100074.76;1556720;91;21880;-91
2022/08/15 02:20:19;;;;;;;13.83;7.28;;;;;;;23.97;63.81;100075.86;1597091;89;20987;-92
2022/08/15 02:22:53;;;;;;;;;;;;;;;23.96;63.70;100066.78;1599230;88;21034;-91
2022/08/15 02:25:22;;;;;;;10.72;7.03;;;;;;;23.96;63.81;100067.58;1597079;88;20496;-91
2022/08/15 02:27:53;;;;;;;12.68;6.72;;;;;;;23.94;63.99;100061.16;1599358;89;21067;-94
2022/08/15 02:30:22;;;;;;;8.47;7.30;;;;;;;23.92;64.21;100062.38;1588483;89;21176;-94
2022/08/15 02:32:50;;;;;;;8.43;6.90;;;;;;;23.89;64.36;100058.32;1604263;88;21186;-92
2022/08/15 02:35:22;;;;;;;10.08;7.10;;;;;;;23.87;64.46;100061.70;1604278;89;21106;-92
2022/08/15 02:37:49;;;;;;;12.58;7.53;;;;;;;23.86;64.64;100065.92;1604323;88;21704;-91
2022/08/15 02:40:22;;;;;;;9.53;7.05;;;;;;;23.83;64.83;100065.01;1604111;89;21007;-92
2022/08/15 02:42:50;;;;;;;8.70;6.62;;;;;;;23.82;65.15;100071.35;1604290;88;21172;-92
2022/08/15 02:45:18;;;;;;;9.90;6.58;;;;;;;23.79;65.55;100064.63;1604285;88;21012;-91
2022/08/15 02:47:47;;;;;;;14.87;8.15;;;;;;;23.76;66.15;100067.70;1604289;89;21056;-92
2022/08/15 02:50:17;;;;;;;13.25;8.40;;;;;;;23.73;66.54;100067.63;1604533;89;21494;-92
2022/08/15 02:52:49;;;;;;;11.48;8.08;;;;;;;23.69;66.58;100070.44;1604167;88;21095;-91
2022/08/15 02:55:21;;;;;;;14.73;9.05;;;;;;;23.68;66.72;100071.45;1604390;88;21813;-91
2022/08/15 02:57:51;;;;;;;12.35;8.53;;;;;;;23.67;67.04;100071.69;1604058;88;21084;-91
2022/08/15 03:00:19;;;;;;;11.38;8.33;;;;;;;23.64;67.27;100064.93;1604498;89;21123;-92
2022/08/15 03:02:56;;;;;;;15.72;8.60;;;;;;;23.62;67.57;100068.34;1601670;88;21510;-92
2022/08/15 03:05:31;;;;;;;13.68;7.75;;;;;;;23.60;67.33;100070.39;1604393;89;21067;-92
2022/08/15 03:07:59;;;;;;;12.98;7.70;;;;;;;23.58;67.08;100072.44;1604474;89;21152;-91
2022/08/15 03:10:29;;;;;;;11.68;8.35;;;;;;;23.58;67.13;100065.30;1604064;89;21139;-91
2022/08/15 03:13:05;;;;;;;10.53;8.08;;;;;;;23.58;67.26;100068.45;1604326;89;21566;-91
2022/08/15 03:15:54;;;;;;;11.83;7.87;;;;;;;23.57;67.01;100067.66;1602240;88;21051;-92
2022/08/15 03:18:30;;;;;;;13.28;7.83;;;;;;;23.59;66.89;100072.25;1604560;89;21080;-91
2022/08/15 03:21:01;;;;;;;14.40;7.58;;;;;;;23.62;66.51;100064.36;1604050;89;21168;-91
2022/08/15 03:23:32;;;;;;;9.80;7.45;;;;;;;23.63;66.61;100065.46;1604077;88;21630;-90
2022/08/15 03:26:01;;;;;;;8.43;7.62;;;;;;;23.66;66.53;100074.04;1604548;89;21154;-90
2022/08/15 03:28:33;;;;;;;15.97;7.67;;;;;;;23.67;66.29;100068.50;1604811;88;21059;-90
2022/08/15 03:31:05;;;;;;;14.20;7.50;;;;;;;23.70;66.38;100061.94;1601720;88;21107;-92
2022/08/15 03:33:40;;;;;;;13.70;8.18;;;;;;;23.71;66.47;100068.88;1602210;88;21151;-92
2022/08/15 03:36:09;;;;;;;10.30;7.25;;;;;;;23.70;66.57;100065.92;1604115;88;21106;-91
2022/08/15 03:38:39;;;;;;;8.58;7.30;;;;;;;23.72;66.20;100073.17;1587763;88;21127;-91
2022/08/15 03:41:09;;;;;;;11.10;6.60;;;;;;;23.72;66.62;100067.33;1604384;89;21103;-92
2022/08/15 03:46:18;;;;;;;8.23;7.22;;;;;;;23.75;66.31;100071.42;1604318;88;21909;-91
2022/08/15 03:48:53;;;;;;;8.15;6.60;;;;;;;23.77;66.46;100073.33;1604174;89;21685;-91
2022/08/15 03:51:27;;;;;;;8.58;7.30;;;;;;;23.79;66.24;100076.09;1604104;88;21585;-91
2022/08/15 03:54:00;;;;;;;10.63;6.65;;;;;;;23.82;66.23;100069.52;1604245;89;21060;-89
2022/08/15 03:56:31;;;;;;;9.25;6.83;;;;;;;23.82;66.29;100068.20;1603470;88;21059;-89
2022/08/15 03:59:00;;;;;;;9.73;6.58;;;;;;;23.85;65.72;100062.95;1603121;88;21187;-89
2022/08/15 04:01:32;;;;;;;12.53;7.17;;;;;;;23.87;65.63;100060.38;1604082;88;21087;-89
2022/08/15 04:04:00;;;;;;;;;;;;;;;23.88;66.00;100069.98;1613572;87;21111;-91
2022/08/15 04:06:34;;;;;;;10.98;6.75;;;;;;;23.89;66.53;100070.28;1617292;88;20183;-89
2022/08/15 04:09:06;;;;;;;10.78;6.72;;;;;;;23.90;66.11;100079.06;1618066;87;21113;-90
2022/08/15 04:11:34;;;;;;;11.38;6.50;;;;;;;23.90;66.82;100075.91;1617450;87;40084;-88
2022/08/15 04:14:06;;;;;;;9.33;6.60;;;;;;;23.90;66.33;100068.42;1617747;87;21106;-89
2022/08/15 04:16:37;;;;;;;8.10;6.12;;;;;;;23.91;66.10;100067.40;1615277;87;21131;-89
2022/08/15 04:19:08;;;;;;;8.68;5.87;;;;;;;23.93;65.87;100067.51;1617793;87;21066;-89
2022/08/15 04:21:36;;;;;;;12.47;6.03;;;;;;;23.96;66.60;100086.72;1618122;88;21126;-89
2022/08/15 04:24:03;;;;;;;9.10;6.15;;;;;;;23.96;66.32;100077.42;1618089;87;21550;-89
2022/08/15 04:26:31;;;;;;;15.93;6.42;;;;;;;23.98;65.60;100066.05;1617667;88;21580;-88
2022/08/15 04:28:58;;;;;;;8.73;6.10;;;;;;;24.00;65.18;100067.96;1617566;87;21102;-89
2022/08/15 04:31:28;;;;;;;13.60;6.28;;;;;;;24.03;65.69;100068.37;1617724;87;21357;-90
2022/08/15 04:33:56;;;;;;;9.80;6.17;;;;;;;24.04;67.23;100071.30;1617673;87;21133;-90
2022/08/15 04:36:25;;;;;;;12.03;6.60;;;;;;;24.02;67.42;100074.71;1617733;87;21173;-90
2022/08/15 04:38:55;;;;;;;13.68;6.60;;;;;;;24.00;66.88;100073.28;1617687;87;21114;-89
2022/08/15 04:41:23;;;;;;;10.45;6.33;;;;;;;23.98;68.98;100076.69;1617378;87;21095;-91
2022/08/15 04:43:56;;;;;;;11.45;6.60;;;;;;;23.93;68.54;100082.13;1616696;87;21120;-90
2022/08/15 04:46:25;;;;;;;14.70;6.53;;;;;;;23.91;67.77;100088.17;1616390;87;21079;-89
2022/08/15 04:48:54;;;;;;;8.13;6.30;;;;;;;23.91;67.99;100085.52;1616394;87;21158;-89
2022/08/15 04:51:21;;;;;;;12.03;6.92;;;;;;;23.95;68.79;100084.59;1616114;87;21106;-90
2022/08/15 04:53:49;;;;;;;16.07;6.70;;;;;;;23.99;67.27;100088.96;1616202;87;21087;-89
2022/08/15 04:56:16;;;;;;;9.73;5.92;;;;;;;24.14;68.62;100093.93;1616152;87;21082;-90
2022/08/15 04:58:44;;;;;;;12.35;6.45;;;;;;;24.32;69.88;100101.13;1616427;87;21150;-89
2022/08/15 05:01:15;;;;;;;10.48;6.87;;;;;;;24.50;69.15;100094.52;1612712;87;21881;-91
2022/08/15 05:03:56;;;;;;;13.83;7.17;;;;;;;24.71;67.33;100097.30;1610366;87;21498;-90
2022/08/15 05:06:24;;;;;;;13.53;7.10;;;;;;;24.96;66.78;100094.23;1602879;89;21103;-89
2022/08/15 05:08:52;;;;;;;12.23;6.67;;;;;;;25.11;66.67;100096.52;1602468;88;21581;-91
2022/08/15 05:11:26;;;;;;;10.78;6.78;;;;;;;25.22;64.56;100097.61;1602569;88;21144;-90
2022/08/15 05:13:59;;;;;;;10.53;7.17;;;;;;;25.31;64.17;100106.92;1602600;89;21008;-90
2022/08/15 05:16:32;;;;;;;10.13;6.50;;;;;;;25.34;64.04;100105.95;1601440;88;21106;-91
2022/08/15 05:19:01;;;;;;;9.33;6.90;;;;;;;25.29;63.55;100100.49;1600960;89;22677;-89
2022/08/15 05:21:30;;;;;;;10.10;6.80;;;;;;;25.27;64.03;100110.55;1600565;88;21190;-90
2022/08/15 05:23:59;;;;;;;8.05;7.25;;;;;;;25.21;65.38;100110.12;1600152;89;21093;-92
2022/08/15 05:26:36;;;;;;;12.03;7.22;;;;;;;25.14;63.82;100113.40;1596711;89;21247;-93
2022/08/15 05:29:06;;;;;;;10.05;7.50;;;;;;;25.06;64.07;100117.17;1600427;88;21166;-93
2022/08/15 05:31:35;;;;;;;8.78;7.37;;;;;;;24.98;63.54;100109.48;1597985;88;21081;-91
2022/08/15 05:34:04;;;;;;;9.35;8.25;;;;;;;24.89;63.89;100124.42;1597203;89;21140;-92
2022/08/15 05:36:38;;;;;;;15.05;8.58;;;;;;;24.83;64.60;100125.85;1597666;89;21061;-91
2022/08/15 05:39:25;;;;;;;11.48;8.13;;;;;;;24.75;64.84;100121.62;1599501;88;21236;-90
2022/08/15 05:42:21;;;;;;;15.95;8.13;;;;;;;24.69;65.10;100121.18;1597553;88;21641;-90
2022/08/15 05:45:11;;;;;;;11.80;8.13;;;;;;;24.63;65.02;100126.03;1601622;88;21043;-91
2022/08/15 05:47:48;;;;;;;13.50;8.68;;;;;;;24.59;65.25;100125.66;1597790;88;21628;-91
2022/08/15 05:50:37;;;;;;;12.45;8.80;;;;;;;24.58;66.06;100122.17;1593740;88;21072;-90
2022/08/15 05:53:37;;;;;;;14.75;9.30;;;;;;;24.62;65.05;100121.73;1600035;88;21233;-90
2022/08/15 05:56:28;;;;;;;12.55;8.98;;;;;;;24.68;66.27;100118.22;1596860;88;21082;-89
2022/08/15 05:59:04;;;;;;;;;;;;;;;24.79;66.18;100120.66;1548500;91;21655;-91
2022/08/15 06:01:49;;;;;;;15.30;7.75;;;;;;;24.94;68.85;100120.30;1546243;91;20151;-88
2022/08/15 06:04:40;;;;;;;10.68;7.33;;;;;;;25.07;67.69;100114.80;1577888;89;21665;-89
2022/08/15 06:07:13;;;;;;;7.65;6.85;;;;;;;25.20;66.49;100117.29;1614207;87;21845;-89
2022/08/15 06:10:02;;;;;;;12.25;7.30;;;;;;;25.31;68.62;100115.75;1615796;87;21071;-90
2022/08/15 06:12:39;;;;;;;22.15;8.10;;;;;;;25.41;66.78;100120.55;1620098;87;21010;-90
2022/08/15 06:15:39;;;;;;;11.73;7.92;;;;;;;25.49;66.66;100117.57;1561377;90;21179;-89
2022/08/15 06:18:10;;;;;;;10.90;6.92;;;;;;;25.57;65.33;100115.63;1555881;90;21077;-92
2022/08/15 06:20:55;;;;;;;13.20;7.67;;;;;;;25.60;64.53;100117.31;1616867;87;21172;-93
2022/08/15 06:24:05;;;;;;;11.20;8.58;;;;;;;25.63;65.29;100117.38;1617374;88;21564;-95
2022/08/15 06:26:50;;;;;;;13.35;9.70;;;;;;;25.66;65.26;100116.40;1577575;90;21060;-90
2022/08/15 06:29:42;;;;;;;13.48;7.60;;;;;;;25.74;65.87;100114.44;1612626;87;21082;-94
2022/08/15 06:32:43;;;;;;;14.80;8.03;;;;;;;25.83;64.18;100121.91;1618039;87;21101;-92
2022/08/15 06:35:28;;;;;;;12.80;8.43;;;;;;;25.93;65.99;100115.17;1617908;87;21205;-90
2022/08/15 06:38:21;;;;;;;14.13;7.97;;;;;;;25.97;64.25;100117.16;1616659;88;21138;-89
2022/08/15 06:41:12;;;;;;;14.07;7.47;;;;;;;25.97;64.31;100109.16;1614652;87;21585;-90
2022/08/15 06:43:41;;;;;;;9.08;7.22;;;;;;;25.95;65.09;100117.92;1601047;87;21619;-89
2022/08/15 06:46:11;;;;;;;26.80;8.20;;;;;;;25.93;65.78;100117.84;1595617;88;21146;-90
2022/08/15 06:48:41;;;;;;;17.67;8.93;;;;;;;25.91;66.67;100114.61;1618103;87;21243;-92
2022/08/15 06:51:15;;;;;;;12.75;8.98;;;;;;;25.90;65.92;100121.78;1617146;87;21640;-88
2022/08/15 06:53:57;;;;;;;11.70;8.18;;;;;;;25.88;65.83;100113.73;1616618;87;21142;-89
2022/08/15 06:56:46;;;;;;;16.95;8.23;;;;;;;25.85;64.96;100120.33;1616767;87;21027;-90
2022/08/15 06:59:36;;;;;;;15.08;7.97;;;;;;;25.83;64.99;100120.57;1617302;87;21063;-91
2022/08/15 07:02:35;;;;;;;14.10;8.40;;;;;;;25.83;65.02;100125.91;1613371;87;21910;-90
2022/08/15 07:05:14;;;;;;;13.30;7.45;;;;;;;25.85;66.00;100125.67;1608451;87;21622;-89
2022/08/15 07:07:49;;;;;;;14.33;9.58;;;;;;;25.85;65.99;100132.84;1615344;87;21173;-89
2022/08/15 07:10:33;;;;;;;13.45;8.98;;;;;;;25.89;66.15;100139.36;1618271;87;21652;-89
2022/08/15 07:13:16;;;;;;;14.75;9.15;;;;;;;25.94;67.05;100139.47;1609311;87;21051;-90
2022/08/15 07:15:57;;;;;;;12.07;9.05;;;;;;;25.98;64.36;100132.66;1624735;87;21176;-89
2022/08/15 07:18:34;;;;;;;;;;;;;;;26.03;66.14;100137.30;1617164;87;21114;-91
2022/08/15 07:21:11;;;;;;;10.48;6.50;;;;;;;26.10;64.80;100140.17;1617112;87;20182;-89
2022/08/15 07:24:11;;;;;;;9.30;6.55;;;;;;;26.19;64.39;100133.16;1617916;87;21071;-89
2022/08/15 07:26:54;;;;;;;38.42;8.35;;;;;;;26.30;64.37;100124.36;1597464;88;21150;-90
2022/08/15 07:29:33;;;;;;;17.10;7.17;;;;;;;26.43;63.90;100124.12;1617825;86;21255;-90
2022/08/15 07:32:27;;;;;;;12.75;7.03;;;;;;;26.52;63.74;100124.56;1619573;86;21727;-90
2022/08/15 07:35:16;;;;;;;14.75;7.62;;;;;;;26.57;65.20;100124.70;1608313;86;21110;-89
2022/08/15 07:38:03;;;;;;;8.38;7.10;;;;;;;26.57;64.83;100127.88;1617231;87;21628;-89
2022/08/15 07:40:40;;;;;;;9.43;7.05;;;;;;;26.55;63.05;100128.65;1615949;87;21079;-89
2022/08/15 07:43:32;;;;;;;9.45;7.12;;;;;;;26.51;64.08;100124.81;1611355;88;21167;-89
2022/08/15 07:46:15;;;;;;;8.98;6.97;;;;;;;26.49;63.23;100131.72;1615761;87;21126;-89
2022/08/15 07:48:44;;;;;;;10.80;7.47;;;;;;;26.51;63.83;100124.81;1606274;87;21114;-89
2022/08/15 07:51:33;;;;;;;9.20;6.70;;;;;;;26.61;65.38;100137.05;1618069;87;21081;-89
2022/08/15 07:54:22;;;;;;;17.82;6.75;;;;;;;26.78;65.99;100137.70;1621047;87;21028;-89
2022/08/15 07:56:58;;;;;;;13.48;7.50;;;;;;;27.10;68.03;100138.08;1626623;86;21189;-90
2022/08/15 07:59:30;;;;;;;9.68;6.75;;;;;;;27.51;66.14;100133.55;1629999;85;21122;-90
2022/08/15 08:02:08;;;;;;;13.50;7.05;;;;;;;27.90;65.24;100138.23;1619414;87;21094;-90
2022/08/15 08:04:36;;;;;;;12.53;7.08;;;;;;;28.26;63.95;100131.31;1614130;87;21123;-90
2022/08/15 08:07:21;;;;;;;10.95;7.17;;;;;;;28.50;62.36;100125.22;1603640;88;21167;-93
2022/08/15 08:10:50;;;;;;;17.15;7.17;;;;;;;28.67;62.46;100127.88;1599216;87;21045;-90
2022/08/15 08:38:54;;;;;;;13.08;7.90;;;;;;;29.58;62.21;100112.28;1605226;88;21561;-89
2022/08/15 08:41:51;;;;;;;12.58;8.43;;;;;;;30.00;63.86;100102.75;1593921;89;21028;-89
2022/08/15 08:44:43;;;;;;;15.13;8.33;;;;;;;30.24;62.01;100094.31;1605373;88;21529;-88
2022/08/15 08:47:25;;;;;;;11.12;8.30;;;;;;;30.41;58.53;100099.49;1611165;88;21481;-88
2022/08/15 08:50:18;;;;;;;14.87;10.25;;;;;;;30.46;58.98;100090.94;1650293;85;21016;-88
2022/08/15 08:53:42;;;;;;;14.68;10.90;;;;;;;30.45;60.11;100084.46;1647761;86;21044;-88
2022/08/15 08:56:21;;;;;;;28.87;11.48;;;;;;;30.40;55.85;100082.59;1650955;86;21080;-90
2022/08/15 08:59:01;;;;;;;10.53;6.75;;;;;;;30.28;55.61;100083.31;1648642;87;21138;-89
2022/08/15 09:01:27;;;;;;;11.65;8.60;;;;;;;30.19;54.46;100082.45;1594896;89;21508;-89
2022/08/15 09:04:04;;;;;;;12.75;6.58;;;;;;;30.16;54.13;100075.45;1607065;89;21074;-89
2022/08/15 09:06:38;;;;;;;12.80;7.45;;;;;;;30.19;51.93;100071.72;1601624;89;21088;-90
2022/08/15 09:09:34;;;;;;;15.20;9.05;;;;;;;30.36;53.58;100080.95;1599155;88;21079;-89
2022/08/15 09:15:00;;;;;;;12.40;8.23;;;;;;;30.65;53.15;100085.12;1592020;89;21740;-89
2022/08/15 09:17:33;;;;;;;12.65;9.48;;;;;;;30.70;53.71;100071.72;1590278;89;21605;-90
2022/08/15 09:20:17;;;;;;;10.65;8.73;;;;;;;30.75;52.26;100069.59;1583601;89;21073;-89
2022/08/15 09:22:44;;;;;;;13.10;8.88;;;;;;;30.81;52.81;100071.22;1583518;89;21039;-89
2022/08/15 09:25:16;;;;;;;11.60;7.50;;;;;;;30.83;52.19;100069.88;1596067;88;21049;-92
2022/08/15 09:28:04;;;;;;;16.48;7.45;;;;;;;30.82;49.30;100074.98;1577105;89;21236;-90
2022/08/15 09:30:40;;;;;;;19.00;7.95;;;;;;;30.83;52.89;100071.77;1586922;89;21063;-89
2022/08/15 09:33:44;;;;;;;13.25;7.17;;;;;;;30.82;52.13;100072.84;1597861;89;21139;-89
2022/08/15 09:36:31;;;;;;;10.10;7.30;;;;;;;30.79;52.05;100068.80;1605437;87;21076;-89
2022/08/15 09:39:41;;;;;;;10.70;7.70;;;;;;;30.96;54.05;100067.23;1567028;90;21104;-89
2022/08/15 09:42:32;;;;;;;11.40;8.25;;;;;;;31.25;53.03;100064.63;1585822;90;21823;-90
2022/08/15 09:45:18;;;;;;;10.90;7.37;;;;;;;31.63;49.88;100058.45;1570865;90;21083;-89
2022/08/15 09:48:19;;;;;;;11.68;8.70;;;;;;;31.96;46.57;100062.22;1574334;88;21000;-90
2022/08/15 09:51:13;;;;;;;;;;;;;;;32.22;44.47;100054.91;1607175;88;21516;-89
2022/08/15 09:54:11;;;;;;;9.78;7.42;;;;;;;32.34;45.19;100060.78;1629547;87;20184;-90
2022/08/15 09:56:40;;;;;;;9.70;7.92;;;;;;;32.37;45.72;100054.86;1596023;87;21194;-91
2022/08/15 09:59:29;;;;;;;13.18;10.32;;;;;;;32.43;46.19;100057.00;1578540;90;21096;-90
2022/08/15 10:02:00;;;;;;;13.98;8.48;;;;;;;32.43;47.13;100058.87;1588806;89;21514;-90
2022/08/15 10:04:56;;;;;;;15.05;9.20;;;;;;;32.44;47.94;100057.80;1579454;90;21401;-91
2022/08/15 10:07:54;;;;;;;9.25;8.35;;;;;;;32.44;48.11;100059.14;1567543;89;21092;-89
2022/08/15 10:10:51;;;;;;;11.83;7.72;;;;;;;32.60;49.22;100052.60;1570541;88;21178;-90
2022/08/15 10:13:45;;;;;;;17.85;7.45;;;;;;;32.60;49.22;100052.60;1578957;90;21131;-89
2022/08/15 10:16:43;;;;;;;12.43;8.05;;;;;;;32.65;45.27;100056.61;1583166;90;21071;-90
2022/08/15 10:19:38;;;;;;;8.50;7.33;;;;;;;32.65;45.27;100056.61;1554956;90;21117;-90
2022/08/15 10:22:26;;;;;;;7.97;7.08;;;;;;;32.63;46.10;100049.37;1591656;89;21177;-90
2022/08/15 10:25:33;;;;;;;14.90;10.63;;;;;;;32.61;46.98;100044.78;1591055;90;21269;-89
2022/08/15 10:28:20;;;;;;;11.38;8.78;;;;;;;32.59;47.15;100042.11;1571042;90;21040;-90
2022/08/15 10:31:05;;;;;;;13.30;8.70;;;;;;;32.63;46.37;100041.80;1597168;88;21076;-90
2022/08/15 10:33:38;;;;;;;12.73;8.28;;;;;;;32.77;47.13;100037.97;1562192;90;21202;-89
2022/08/15 10:36:15;;;;;;;12.73;8.28;;;;;;;32.93;47.55;100034.13;1574695;89;20993;-90
2022/08/15 10:38:50;;;;;;;11.48;8.05;;;;;;;33.06;46.56;100035.39;1574359;89;21189;-92
2022/08/15 10:41:26;;;;;;;11.70;7.65;;;;;;;33.12;44.01;100039.66;1577858;90;21075;-91
2022/08/15 10:44:20;;;;;;;8.80;6.97;;;;;;;33.16;45.31;100039.90;1569316;90;21593;-90
2022/08/15 10:46:58;;;;;;;9.18;7.47;;;;;;;33.16;44.00;100034.50;1575286;89;21079;-90
2022/08/15 10:49:48;;;;;;;11.65;7.40;;;;;;;33.16;45.19;100035.86;1576276;90;21100;-90
2022/08/15 10:52:38;;;;;;;9.68;8.05;;;;;;;33.13;44.77;100027.00;1584050;89;21187;-90
2022/08/15 10:55:32;;;;;;;11.33;8.25;;;;;;;33.05;44.13;100032.43;1534166;93;21086;-90
2022/08/15 10:58:17;;;;;;;9.83;7.47;;;;;;;32.95;43.56;100031.97;1576460;90;21087;-89
2022/08/15 11:00:53;;;;;;;13.08;8.05;;;;;;;32.90;43.81;100025.24;1580576;89;21115;-90
2022/08/15 11:03:35;;;;;;;16.12;9.40;;;;;;;32.96;45.00;100028.19;1595976;88;21075;-90
2022/08/15 11:06:08;;;;;;;12.40;7.93;;;;;;;33.08;43.85;100022.97;1593577;89;21152;-90
2022/08/15 11:08:48;;;;;;;14.15;8.55;;;;;;;33.17;42.34;100019.38;1588772;89;21212;-89
2022/08/15 11:11:24;;;;;;;11.03;8.65;;;;;;;33.21;43.69;100021.00;1587204;90;21626;-90
2022/08/15 11:13:59;;;;;;;14.47;8.98;;;;;;;33.33;45.02;100023.37;1588836;89;21092;-89
2022/08/15 11:16:32;;;;;;;12.68;8.48;;;;;;;33.52;45.19;100026.17;1594973;88;21734;-90
2022/08/15 11:42:20;;;;;;;12.07;8.38;;;;;;;34.67;39.17;99994.09;1622703;86;21587;-89
2022/08/15 11:44:59;;;;;;;10.90;8.83;;;;;;;34.77;37.76;100000.70;1661199;84;21031;-90
2022/08/15 11:47:32;;;;;;;13.35;8.58;;;;;;;34.70;37.81;99991.60;1677390;84;21028;-91
2022/08/15 11:50:04;;;;;;;10.18;8.23;;;;;;;34.69;37.75;99982.45;1669419;85;21132;-93
2022/08/15 11:52:47;;;;;;;10.08;7.85;;;;;;;34.84;42.99;99985.48;1663516;85;21217;-90
2022/08/15 11:55:23;;;;;;;18.30;9.13;;;;;;;35.03;39.51;99980.86;1662730;85;21102;-90
2022/08/15 11:57:58;;;;;;;11.65;7.67;;;;;;;35.06;37.21;99990.28;1670734;85;21536;-91
2022/08/15 12:00:42;;;;;;;10.95;7.87;;;;;;;34.86;36.91;99990.84;1656238;84;21214;-91
2022/08/15 12:03:27;;;;;;;10.98;8.30;;;;;;;34.69;38.97;99989.20;1667496;84;21083;-92
2022/08/15 12:06:17;;;;;;;12.78;8.13;;;;;;;34.60;39.59;99983.10;1670795;85;21738;-91
2022/08/15 12:08:47;;;;;;;9.30;6.90;;;;;;;34.45;38.83;99979.27;1663049;85;21087;-92
2022/08/15 12:11:23;;;;;;;10.48;6.97;;;;;;;34.21;38.97;99982.79;1665666;85;21684;-91
2022/08/15 12:14:06;;;;;;;8.88;6.60;;;;;;;33.96;37.59;99979.86;1661518;85;21123;-93
2022/08/15 12:16:40;;;;;;;10.43;7.40;;;;;;;33.77;39.13;99981.92;1642319;85;21028;-92
2022/08/15 12:19:41;;;;;;;11.05;8.10;;;;;;;33.80;40.24;99980.53;1658994;85;21351;-92
2022/08/15 12:22:35;;;;;;;13.03;7.17;;;;;;;33.94;39.92;99974.73;1666780;82;21628;-91
2022/08/15 12:25:05;;;;;;;12.35;8.13;;;;;;;34.18;38.95;99967.15;1661547;85;21048;-92
2022/08/15 12:27:35;;;;;;;19.52;8.05;;;;;;;34.39;37.10;99970.98;1665539;84;21088;-89
2022/08/15 12:30:07;;;;;;;7.65;6.90;;;;;;;34.52;36.63;99964.84;1659203;85;21096;-92
2022/08/15 12:32:36;;;;;;;12.47;7.80;;;;;;;34.62;37.90;99973.91;1671082;84;21270;-91
2022/08/15 12:35:05;;;;;;;17.02;7.15;;;;;;;34.69;37.14;99971.63;1667472;85;21514;-91
2022/08/15 12:37:33;;;;;;;12.20;7.37;;;;;;;34.75;38.26;99966.39;1672085;84;21569;-95
2022/08/15 12:40:06;;;;;;;19.90;7.95;;;;;;;34.84;38.41;99965.98;1696799;83;21062;-91
2022/08/15 12:42:36;;;;;;;11.43;7.85;;;;;;;34.87;36.18;99970.82;1640781;83;21132;-92
2022/08/15 12:45:14;;;;;;;9.98;7.20;;;;;;;34.82;36.72;99966.03;1644720;85;21077;-92
2022/08/15 12:47:47;;;;;;;12.13;7.22;;;;;;;34.74;36.14;99960.73;1621844;85;21079;-92
2022/08/15 12:50:15;;;;;;;12.75;7.62;;;;;;;34.65;36.03;99955.77;1643429;86;21069;-92
2022/08/15 12:52:47;;;;;;;11.20;7.87;;;;;;;34.54;36.10;99952.38;1624178;86;21088;-92
2022/08/15 12:55:14;;;;;;;62.70;10.75;;;;;;;34.40;36.72;99945.02;1625301;86;21123;-91
2022/08/15 12:57:46;;;;;;;21.52;9.10;;;;;;;34.28;37.80;99954.87;1612622;88;21795;-93
2022/08/15 13:00:17;;;;;;;13.38;9.63;;;;;;;34.19;37.77;99947.16;1643964;86;21087;-92
2022/08/15 13:02:46;;;;;;;14.55;11.05;;;;;;;34.11;37.34;99947.80;1644359;85;21079;-92
2022/08/15 13:05:19;;;;;;;21.15;12.53;;;;;;;34.07;38.37;99942.17;1644690;86;21037;-92